createdAt,value
2023-03-21T00:01:50.533Z,0.68
2023-03-21T00:04:17.818Z,0.32
2023-03-21T00:06:44.659Z,0.43
2023-03-21T00:09:12.405Z,0.20
2023-03-21T00:11:39.300Z,0.10
2023-03-21T00:14:09.007Z,0.10
2023-03-21T00:16:37.553Z,0.10
2023-03-21T00:19:09.910Z,0.10
2023-03-21T00:21:49.088Z,0.20
2023-03-21T00:24:23.073Z,0.20
2023-03-21T00:26:51.154Z,0.13
2023-03-21T00:29:18.189Z,0.05
2023-03-21T00:31:44.980Z,0.20
2023-03-21T00:36:39.530Z,0.10
2023-03-21T00:39:06.472Z,0.10
2023-03-21T00:41:48.634Z,0.10
2023-03-21T00:44:16.040Z,0.10
2023-03-21T00:46:51.650Z,1.33
2023-03-21T00:49:27.865Z,0.10
2023-03-21T00:51:55.333Z,0.10
2023-03-21T00:54:24.047Z,0.10
2023-03-21T00:56:51.054Z,0.10
2023-03-21T00:59:17.825Z,0.10
2023-03-21T01:01:46.891Z,0.10
2023-03-21T01:04:16.733Z,0.10
2023-03-21T01:06:44.788Z,0.10
2023-03-21T01:09:17.208Z,0.10
2023-03-21T01:11:44.436Z,0.20
2023-03-21T01:14:21.941Z,0.10
2023-03-21T01:16:53.865Z,0.43
2023-03-21T01:19:37.533Z,0.30
2023-03-21T01:22:11.560Z,0.10
2023-03-21T01:24:46.831Z,0.13
2023-03-21T01:27:19.101Z,0.10
2023-03-21T01:29:45.834Z,0.10
2023-03-21T01:32:12.556Z,0.10
2023-03-21T01:34:39.280Z,0.10
2023-03-21T01:37:06.435Z,0.10
2023-03-21T01:39:35.043Z,0.10
2023-03-21T01:42:01.854Z,0.75
2023-03-21T01:44:29.099Z,1.85
2023-03-21T01:47:12.718Z,0.20
2023-03-21T01:49:46.408Z,0.20
2023-03-21T01:52:33.536Z,0.10
2023-03-21T01:55:07.175Z,0.10
2023-03-21T01:57:51.921Z,0.10
2023-03-21T02:00:29.590Z,0.10
2023-03-21T02:08:14.866Z,0.00
2023-03-21T02:10:47.428Z,0.10
2023-03-21T02:13:16.019Z,0.25
2023-03-21T02:15:53.881Z,0.10
2023-03-21T02:18:48.598Z,0.10
2023-03-21T02:21:21.050Z,0.10
2023-03-21T02:24:06.427Z,0.10
2023-03-21T02:27:03.661Z,0.20
2023-03-21T02:29:58.085Z,0.10
2023-03-21T02:32:54.977Z,0.10
2023-03-21T02:36:11.950Z,0.30
2023-03-21T02:38:49.334Z,0.10
2023-03-21T02:41:42.116Z,0.08
2023-03-21T02:44:35.688Z,0.10
2023-03-21T02:47:06.745Z,0.10
2023-03-21T02:49:52.473Z,0.10
2023-03-21T02:52:38.025Z,0.10
2023-03-21T02:55:13.878Z,0.10
2023-03-21T02:57:44.037Z,0.10
2023-03-21T03:00:17.888Z,0.10
2023-03-21T03:02:45.326Z,0.10
2023-03-21T03:05:35.876Z,0.10
2023-03-21T03:08:38.344Z,0.10
2023-03-21T03:11:38.838Z,0.10
2023-03-21T03:14:40.203Z,0.10
2023-03-21T03:17:17.492Z,0.08
2023-03-21T03:20:07.026Z,0.08
2023-03-21T03:22:48.410Z,0.10
2023-03-21T03:25:35.821Z,0.10
2023-03-21T03:28:09.361Z,0.10
2023-03-21T03:30:43.424Z,0.10
2023-03-21T03:33:17.969Z,0.10
2023-03-21T03:35:55.860Z,0.10
2023-03-21T03:38:31.150Z,0.35
2023-03-21T03:41:14.809Z,0.10
2023-03-21T03:43:48.879Z,0.10
2023-03-21T03:46:35.202Z,0.10
2023-03-21T03:49:08.368Z,0.10
2023-03-21T03:52:02.275Z,0.17
2023-03-21T03:54:33.720Z,0.10
2023-03-21T03:57:01.443Z,0.10
2023-03-21T03:59:28.522Z,0.20
2023-03-21T04:01:55.330Z,0.10
2023-03-21T04:04:23.111Z,0.10
2023-03-21T04:06:53.560Z,0.10
2023-03-21T04:09:26.736Z,0.10
2023-03-21T04:11:56.651Z,0.10
2023-03-21T04:14:25.575Z,0.10
2023-03-21T04:16:54.709Z,0.10
2023-03-21T04:19:21.543Z,0.10
2023-03-21T04:21:48.629Z,0.10
2023-03-21T04:24:15.563Z,0.10
2023-03-21T04:26:42.394Z,0.10
2023-03-21T04:29:09.133Z,0.00
2023-03-21T04:31:36.185Z,0.10
2023-03-21T04:34:09.993Z,0.10
2023-03-21T04:36:44.787Z,0.20
2023-03-21T04:39:13.128Z,0.10
2023-03-21T04:41:41.139Z,0.75
2023-03-21T04:44:08.292Z,0.10
2023-03-21T04:46:36.021Z,0.10
2023-03-21T04:49:03.364Z,0.10
2023-03-21T04:51:30.678Z,7.38
2023-03-21T04:54:00.215Z,0.10
2023-03-21T04:56:34.296Z,0.10
2023-03-21T04:59:05.936Z,0.10
2023-03-21T05:01:32.997Z,0.10
2023-03-21T05:04:01.260Z,0.10
2023-03-21T05:06:28.724Z,0.10
2023-03-21T05:09:00.160Z,0.10
2023-03-21T05:11:28.460Z,0.10
2023-03-21T05:13:55.350Z,0.10
2023-03-21T05:16:25.678Z,0.10
2023-03-21T05:18:55.748Z,0.10
2023-03-21T05:21:23.547Z,0.08
2023-03-21T05:23:58.508Z,0.00
2023-03-21T05:26:25.385Z,0.10
2023-03-21T05:28:52.135Z,0.10
2023-03-21T05:31:19.550Z,0.10
2023-03-21T05:33:47.070Z,0.10
2023-03-21T05:36:14.914Z,0.10
2023-03-21T05:38:45.656Z,0.10
2023-03-21T05:41:18.154Z,0.10
2023-03-21T05:43:45.956Z,0.10
2023-03-21T05:46:13.066Z,0.10
2023-03-21T05:48:39.934Z,0.10
2023-03-21T05:51:06.976Z,0.10
2023-03-21T05:53:33.739Z,0.03
2023-03-21T05:56:00.688Z,0.10
2023-03-21T05:58:27.604Z,0.10
2023-03-21T06:00:54.739Z,8.05
2023-03-21T06:03:21.648Z,9.13
2023-03-21T06:05:48.544Z,6.97
2023-03-21T06:08:15.499Z,9.38
2023-03-21T06:10:42.364Z,14.07
2023-03-21T06:13:09.205Z,6.55
2023-03-21T06:15:36.286Z,15.38
2023-03-21T06:18:03.269Z,14.25
2023-03-21T06:20:30.001Z,6.20
2023-03-21T06:22:56.795Z,10.48
2023-03-21T06:25:23.570Z,13.70
2023-03-21T06:27:51.017Z,12.05
2023-03-21T06:30:18.498Z,7.05
2023-03-21T06:32:45.441Z,11.50
2023-03-21T06:35:12.224Z,11.93
2023-03-21T06:37:39.078Z,18.63
2023-03-21T06:40:09.148Z,7.43
2023-03-21T06:42:36.522Z,7.80
2023-03-21T06:45:03.724Z,10.48
2023-03-21T06:47:30.419Z,8.45
2023-03-21T06:49:57.324Z,8.98
2023-03-21T06:52:24.065Z,10.70
2023-03-21T06:54:51.319Z,14.38
2023-03-21T06:57:20.332Z,13.90
2023-03-21T06:59:47.703Z,19.63
2023-03-21T07:02:14.669Z,10.48
2023-03-21T07:04:41.497Z,12.18
2023-03-21T07:07:08.238Z,14.30
2023-03-21T07:09:34.984Z,23.02
2023-03-21T07:12:01.718Z,17.67
2023-03-21T07:14:28.461Z,8.50
2023-03-21T07:16:55.995Z,15.77
2023-03-21T07:19:22.744Z,12.18
2023-03-21T07:21:49.521Z,9.57
2023-03-21T07:24:16.229Z,11.38
2023-03-21T07:26:43.023Z,10.52
2023-03-21T07:29:09.859Z,8.82
2023-03-21T07:31:37.337Z,6.25
2023-03-21T07:34:04.167Z,7.13
2023-03-21T07:36:30.890Z,8.30
2023-03-21T07:38:57.657Z,5.72
2023-03-21T07:41:24.665Z,4.50
2023-03-21T07:43:51.477Z,4.95
2023-03-21T07:46:18.247Z,2.90
2023-03-21T07:48:45.092Z,3.90
2023-03-21T07:51:11.810Z,5.72
2023-03-21T07:53:38.623Z,7.25
2023-03-21T07:56:06.484Z,8.90
2023-03-21T07:58:34.363Z,5.93
2023-03-21T08:01:02.277Z,9.73
2023-03-21T08:03:30.109Z,2.47
2023-03-21T08:05:59.050Z,4.68
2023-03-21T08:08:26.194Z,5.60
2023-03-21T08:10:53.142Z,3.88
2023-03-21T08:13:19.858Z,6.40
2023-03-21T08:15:46.791Z,5.57
2023-03-21T08:18:13.518Z,3.85
2023-03-21T08:20:40.292Z,3.05
2023-03-21T08:23:07.070Z,1.95
2023-03-21T08:25:34.061Z,3.05
2023-03-21T08:28:00.823Z,10.25
2023-03-21T08:30:29.316Z,4.90
2023-03-21T08:33:00.830Z,6.82
2023-03-21T08:35:29.376Z,4.43
2023-03-21T08:37:56.142Z,5.15
2023-03-21T08:40:23.000Z,4.05
2023-03-21T08:42:49.833Z,7.15
2023-03-21T08:45:18.549Z,8.40
2023-03-21T08:47:46.591Z,10.65
2023-03-21T08:50:17.562Z,9.93
2023-03-21T08:52:45.130Z,7.60
2023-03-21T08:55:12.811Z,7.03
2023-03-21T08:57:39.925Z,5.78
2023-03-21T09:00:14.799Z,5.20
2023-03-21T09:02:42.750Z,7.18
2023-03-21T09:05:12.166Z,4.50
2023-03-21T09:07:40.381Z,5.20
2023-03-21T09:10:25.642Z,3.83
2023-03-21T09:12:54.791Z,2.58
2023-03-21T09:15:24.642Z,3.25
2023-03-21T09:17:57.189Z,4.05
2023-03-21T09:20:33.132Z,2.33
2023-03-21T09:23:02.027Z,5.45
2023-03-21T09:25:35.342Z,6.38
2023-03-21T09:28:05.577Z,8.80
2023-03-21T09:30:34.625Z,4.65
2023-03-21T09:33:09.840Z,4.72
2023-03-21T09:35:37.123Z,3.85
2023-03-21T09:38:05.686Z,5.55
2023-03-21T09:40:56.194Z,4.70
2023-03-21T09:44:00.369Z,4.35
2023-03-21T09:46:36.374Z,3.70
2023-03-21T09:49:21.023Z,4.18
2023-03-21T09:51:54.458Z,2.85
2023-03-21T09:54:27.512Z,6.35
2023-03-21T09:56:59.460Z,6.30
2023-03-21T09:59:42.096Z,4.28
2023-03-21T10:02:39.553Z,5.40
2023-03-21T10:05:34.311Z,3.17
2023-03-21T10:08:13.485Z,5.30
2023-03-21T10:10:59.113Z,10.40
2023-03-21T10:13:29.935Z,5.20
2023-03-21T10:15:59.936Z,4.43
2023-03-21T10:18:31.481Z,2.67
2023-03-21T10:20:58.325Z,10.07
2023-03-21T10:23:28.789Z,5.57
2023-03-21T10:25:59.953Z,7.17
2023-03-21T10:28:52.144Z,4.70
2023-03-21T10:31:26.913Z,4.85
2023-03-21T10:33:57.964Z,7.63
2023-03-21T10:36:28.051Z,6.22
2023-03-21T10:39:04.561Z,5.60
2023-03-21T10:41:32.380Z,7.57
2023-03-21T10:44:11.966Z,7.30
2023-03-21T10:46:39.335Z,6.88
2023-03-21T10:49:08.335Z,4.82
2023-03-21T10:51:37.925Z,10.07
2023-03-21T10:54:13.219Z,7.95
2023-03-21T10:56:47.166Z,5.63
2023-03-21T10:59:20.863Z,9.38
2023-03-21T11:01:51.804Z,13.80
2023-03-21T11:04:22.798Z,7.82
2023-03-21T11:06:59.895Z,14.25
2023-03-21T11:09:43.429Z,10.73
2023-03-21T11:12:12.367Z,13.73
2023-03-21T11:14:40.643Z,15.95
2023-03-21T11:17:31.375Z,13.77
2023-03-21T11:19:59.740Z,15.83
2023-03-21T11:22:31.554Z,16.10
2023-03-21T11:25:02.858Z,8.13
2023-03-21T11:29:59.870Z,14.13
2023-03-21T11:32:37.761Z,12.25
2023-03-21T11:35:17.291Z,5.82
2023-03-21T11:37:49.320Z,9.93
2023-03-21T11:40:25.778Z,8.45
2023-03-21T11:42:56.412Z,15.15
2023-03-21T11:45:26.675Z,8.25
2023-03-21T11:47:56.433Z,20.05
2023-03-21T11:50:36.966Z,9.32
2023-03-21T11:53:22.631Z,12.17
2023-03-21T11:56:14.193Z,14.50
2023-03-21T12:01:16.567Z,14.57
2023-03-21T12:04:05.726Z,13.02
2023-03-21T12:06:32.448Z,10.43
2023-03-21T12:09:17.713Z,20.85
2023-03-21T12:11:57.194Z,13.98
2023-03-21T12:14:26.865Z,14.43
2023-03-21T12:17:05.762Z,14.02
2023-03-21T12:19:49.303Z,13.32
2023-03-21T12:22:50.414Z,11.82
2023-03-21T12:25:29.198Z,15.55
2023-03-21T12:28:03.772Z,17.17
2023-03-21T12:30:49.040Z,19.45
2023-03-21T12:33:49.666Z,12.32
2023-03-21T12:36:37.647Z,13.70
2023-03-21T12:39:35.166Z,14.98
2023-03-21T12:42:14.024Z,16.80
2023-03-21T12:44:49.705Z,13.68
2023-03-21T12:47:21.726Z,11.82
2023-03-21T12:49:55.367Z,13.18
2023-03-21T12:52:27.076Z,11.88
2023-03-21T12:55:06.018Z,8.80
2023-03-21T12:57:44.779Z,17.02
2023-03-21T13:00:25.946Z,14.60
2023-03-21T13:03:00.283Z,6.80
2023-03-21T13:05:32.943Z,12.32
2023-03-21T13:08:07.255Z,7.85
2023-03-21T13:10:34.709Z,9.32
2023-03-21T13:13:31.367Z,11.00
2023-03-21T13:16:24.736Z,10.70
2023-03-21T13:19:00.779Z,8.82
2023-03-21T13:21:59.952Z,7.13
2023-03-21T13:24:28.988Z,9.13
2023-03-21T13:27:07.188Z,4.28
2023-03-21T13:29:52.086Z,7.57
2023-03-21T13:32:35.992Z,10.30
2023-03-21T13:35:15.683Z,5.57
2023-03-21T13:37:49.078Z,5.85
2023-03-21T13:40:21.948Z,4.78
2023-03-21T13:42:59.822Z,8.65
2023-03-21T13:45:29.748Z,4.07
2023-03-21T13:48:03.668Z,5.07
2023-03-21T13:50:36.597Z,4.82
2023-03-21T13:53:15.803Z,3.80
2023-03-21T13:55:45.909Z,1.80
2023-03-21T13:58:33.477Z,4.60
2023-03-21T14:01:39.580Z,1.30
2023-03-21T14:04:18.881Z,4.30
2023-03-21T14:07:12.553Z,3.10
2023-03-21T14:09:52.113Z,6.75
2023-03-21T14:12:37.706Z,3.72
2023-03-21T14:15:26.371Z,3.88
2023-03-21T14:17:59.136Z,7.85
2023-03-21T14:20:38.444Z,3.13
2023-03-21T14:23:06.748Z,2.30
2023-03-21T14:25:44.725Z,4.43
2023-03-21T14:28:28.648Z,3.37
2023-03-21T14:31:00.159Z,4.70
2023-03-21T14:33:40.331Z,3.85
2023-03-21T14:36:14.134Z,1.67
2023-03-21T14:38:41.541Z,2.80
2023-03-21T14:41:26.867Z,2.08
2023-03-21T14:44:12.379Z,2.58
2023-03-21T14:46:41.895Z,2.10
2023-03-21T14:49:20.274Z,1.60
2023-03-21T14:51:47.225Z,2.80
2023-03-21T14:54:17.875Z,2.75
2023-03-21T14:56:52.732Z,4.45
2023-03-21T14:59:23.675Z,1.45
2023-03-21T15:01:54.297Z,2.08
2023-03-21T15:04:21.869Z,2.20
2023-03-21T15:06:59.611Z,1.75
2023-03-21T15:09:30.179Z,3.35
2023-03-21T15:11:57.879Z,2.90
2023-03-21T15:14:31.860Z,6.38
2023-03-21T15:17:02.150Z,2.83
2023-03-21T15:19:32.883Z,2.20
2023-03-21T15:22:09.038Z,2.05
2023-03-21T15:24:41.480Z,3.40
2023-03-21T15:27:14.746Z,2.95
2023-03-21T15:29:43.432Z,2.70
2023-03-21T15:32:16.528Z,2.30
2023-03-21T15:34:43.683Z,3.05
2023-03-21T15:37:17.382Z,2.97
2023-03-21T15:39:45.022Z,2.63
2023-03-21T15:42:37.490Z,2.88
2023-03-21T15:45:17.347Z,3.17
2023-03-21T15:47:52.184Z,1.98
2023-03-21T15:50:40.769Z,1.75
2023-03-21T15:53:18.930Z,3.53
2023-03-21T15:55:50.120Z,1.63
2023-03-21T16:00:54.969Z,0.63
2023-03-21T16:03:35.346Z,1.75
2023-03-21T16:06:11.457Z,1.98
2023-03-21T16:08:50.734Z,0.30
2023-03-21T16:11:29.333Z,1.35
2023-03-21T16:13:56.692Z,1.33
2023-03-21T16:16:26.076Z,2.08
2023-03-21T16:18:54.458Z,2.20
2023-03-21T16:21:27.680Z,2.95
2023-03-21T16:23:55.105Z,1.80
2023-03-21T16:26:26.465Z,2.10
2023-03-21T16:31:23.040Z,1.08
2023-03-21T16:33:51.348Z,2.20
2023-03-21T16:36:27.010Z,2.10
2023-03-21T16:38:55.483Z,2.15
2023-03-21T16:41:24.823Z,2.08
2023-03-21T16:43:52.389Z,0.55
2023-03-21T16:46:27.141Z,1.30
2023-03-21T16:48:57.029Z,0.73
2023-03-21T16:51:33.427Z,0.65
2023-03-21T16:54:00.558Z,3.00
2023-03-21T16:56:31.034Z,1.27
2023-03-21T16:58:58.305Z,0.37
2023-03-21T17:01:26.675Z,1.75
2023-03-21T17:03:54.156Z,0.98
2023-03-21T17:06:24.632Z,1.85
2023-03-21T17:08:52.406Z,0.50
2023-03-21T17:11:22.037Z,1.98
2023-03-21T17:13:50.429Z,0.52
